Time;durP1;ratioP1;P1;durP2;ratioP2;P2;SDS_P1;SDS_P2;PMS_P1;PMS_P2;Temp;Humidity;BMP_temperature;BMP_pressure;BME280_temperature;BME280_humidity;BME280_pressure;Samples;Min_cycle;Max_cycle;Signal;HPM_P1;HPM_P2
2023/02/24 00:01:36;;;;;;;48.25;5.45;;;;;;;11.29;100.00;101471.59;5099299;28;20039;-50
2023/02/24 00:04:06;;;;;;;20.65;4.78;;;;;;;11.23;100.00;101472.34;5098559;28;20032;-52
2023/02/24 00:06:36;;;;;;;28.33;4.78;;;;;;;11.23;100.00;101472.34;5099275;28;20052;-51
2023/02/24 00:09:16;;;;;;;20.55;3.75;;;;;;;11.25;100.00;101467.63;5095715;28;20028;-47
2023/02/24 00:11:52;;;;;;;16.23;4.05;;;;;;;11.35;100.00;101471.91;5097576;28;20053;-53
2023/02/24 00:14:19;;;;;;;18.38;3.55;;;;;;;11.21;100.00;101469.03;5080200;28;20032;-48
2023/02/24 00:16:46;;;;;;;22.10;3.80;;;;;;;11.47;100.00;101465.03;5102184;28;20044;-50
2023/02/24 00:19:17;;;;;;;20.92;4.55;;;;;;;11.38;99.30;101471.53;5098676;28;20043;-49
2023/02/24 00:21:43;;;;;;;22.13;3.90;;;;;;;11.44;100.00;101468.09;5097759;28;20048;-51
2023/02/24 00:24:10;;;;;;;17.80;3.78;;;;;;;11.00;100.00;101459.06;5103854;28;20071;-49
2023/02/24 00:26:36;;;;;;;18.52;3.72;;;;;;;11.41;100.00;101458.56;5100476;28;20032;-51
2023/02/24 00:29:05;;;;;;;20.67;3.43;;;;;;;11.32;100.00;101457.88;5102726;28;20175;-50
2023/02/24 00:31:31;;;;;;;20.10;4.32;;;;;;;11.39;100.00;101454.44;5081995;28;20047;-51
2023/02/24 00:33:58;;;;;;;;;;;;;;;11.45;100.00;101445.66;5101490;28;20087;-55
2023/02/24 00:36:25;;;;;;;23.70;3.30;;;;;;;11.59;99.12;101444.81;5073100;28;19953;-48
2023/02/24 00:38:56;;;;;;;18.20;3.10;;;;;;;11.46;96.78;101440.13;5073255;28;20045;-50
2023/02/24 00:41:28;;;;;;;15.27;3.03;;;;;;;11.62;96.63;101439.06;5070999;28;20059;-51
2023/02/24 00:43:56;;;;;;;18.48;3.45;;;;;;;11.64;94.37;101430.84;5072535;28;20029;-51
2023/02/24 00:46:30;;;;;;;17.85;3.40;;;;;;;11.34;94.99;101436.25;5073167;28;20040;-52
2023/02/24 00:48:58;;;;;;;21.23;3.78;;;;;;;11.14;95.91;101441.34;5071592;28;20033;-51
2023/02/24 00:51:25;;;;;;;29.73;4.53;;;;;;;11.23;96.42;101436.72;5072213;28;20057;-51
2023/02/24 00:53:57;;;;;;;24.45;4.80;;;;;;;10.99;96.94;101426.09;5071818;28;20100;-50
2023/02/24 00:56:25;;;;;;;19.58;3.95;;;;;;;10.88;97.39;101426.56;5072729;28;20029;-47
2023/02/24 00:58:52;;;;;;;18.20;3.60;;;;;;;10.82;97.67;101421.91;5072565;28;20040;-50
2023/02/24 01:01:24;;;;;;;28.83;7.55;;;;;;;10.86;97.41;101418.69;5072792;28;20029;-51
2023/02/24 01:03:55;;;;;;;15.00;3.67;;;;;;;11.16;95.55;101421.38;5101368;28;20061;-53
2023/02/24 01:06:23;;;;;;;31.38;5.20;;;;;;;11.00;95.08;101409.00;5072082;28;20096;-50
2023/02/24 01:08:51;;;;;;;18.38;3.50;;;;;;;10.76;96.40;101408.25;5072965;28;20036;-53
2023/02/24 01:14:06;;;;;;;8.63;3.28;;;;;;;10.58;97.33;101403.25;5073342;28;20040;-54
2023/02/24 01:16:33;;;;;;;20.02;3.95;;;;;;;10.71;96.27;101404.47;5072877;28;20025;-51
2023/02/24 01:19:00;;;;;;;22.55;3.88;;;;;;;10.54;96.37;101398.44;5071658;28;20033;-53
2023/02/24 01:21:26;;;;;;;18.17;4.45;;;;;;;10.40;97.25;101387.56;5072631;28;20056;-48
2023/02/24 01:23:52;;;;;;;24.40;3.72;;;;;;;10.38;97.30;101386.88;5073978;28;20036;-52
2023/02/24 01:26:18;;;;;;;16.97;3.90;;;;;;;10.45;96.17;101374.47;5072129;28;20033;-54
2023/02/24 01:28:48;;;;;;;24.13;5.20;;;;;;;10.60;95.61;101378.97;5071727;28;20282;-52
2023/02/24 01:31:22;;;;;;;26.35;5.15;;;;;;;10.46;95.21;101376.13;5073264;28;20033;-51
2023/02/24 01:33:50;;;;;;;17.27;4.38;;;;;;;10.39;95.89;101368.97;5075903;28;20029;-51
2023/02/24 01:36:22;;;;;;;13.38;3.95;;;;;;;10.38;95.67;101369.97;5060663;28;20056;-53
2023/02/24 01:38:48;;;;;;;20.63;3.55;;;;;;;10.19;96.30;101361.44;5059680;28;20034;-54
2023/02/24 01:41:21;;;;;;;23.35;4.07;;;;;;;10.17;97.18;101356.31;5059493;28;20039;-56
2023/02/24 01:43:57;;;;;;;20.67;3.60;;;;;;;10.10;97.23;101355.34;5063561;28;20037;-52
2023/02/24 01:46:25;;;;;;;26.88;4.07;;;;;;;10.21;96.29;101350.59;5063037;28;20040;-54
2023/02/24 01:48:55;;;;;;;17.55;3.70;;;;;;;9.72;98.99;101333.94;5064121;28;20033;-54
2023/02/24 01:51:23;;;;;;;23.05;5.28;;;;;;;9.98;98.02;101338.91;5063246;28;20033;-56
2023/02/24 01:53:49;;;;;;;14.55;3.88;;;;;;;9.80;98.60;101325.84;5056985;28;20090;-50
2023/02/24 01:56:15;;;;;;;18.60;3.88;;;;;;;9.61;99.46;101321.81;5060598;28;20079;-48
2023/02/24 01:58:41;;;;;;;21.95;4.80;;;;;;;9.73;99.49;101319.56;5069238;28;20044;-50
2023/02/24 02:01:09;;;;;;;13.73;4.00;;;;;;;9.73;98.71;101311.56;5067913;28;20075;-51
2023/02/24 02:03:40;;;;;;;20.10;4.47;;;;;;;9.57;99.83;101312.47;5054924;28;20032;-54
2023/02/24 02:06:09;;;;;;;14.93;3.83;;;;;;;9.82;98.89;101310.47;5062968;28;20063;-54
2023/02/24 02:08:38;;;;;;;21.13;4.53;;;;;;;9.28;100.00;101296.16;5064830;28;20033;-53
2023/02/24 02:11:09;;;;;;;19.02;4.30;;;;;;;9.52;100.00;101294.34;5064582;28;20033;-52
2023/02/24 02:13:38;;;;;;;21.02;5.18;;;;;;;9.55;99.76;101296.66;5064362;28;20096;-50
2023/02/24 02:16:37;;;;;;;35.67;5.55;;;;;;;9.43;100.00;101282.03;5068034;28;20033;-49
2023/02/24 02:19:33;;;;;;;28.50;5.55;;;;;;;9.50;99.57;101279.50;5059941;28;20037;-53
2023/02/24 02:22:22;;;;;;;24.00;4.28;;;;;;;9.31;100.00;101281.59;5067408;28;20037;-54
2023/02/24 02:24:51;;;;;;;19.10;4.20;;;;;;;9.60;98.55;101277.44;5064990;28;20052;-52
2023/02/24 02:27:28;;;;;;;25.27;4.90;;;;;;;9.80;96.86;101277.75;5064566;28;20037;-52
2023/02/24 02:30:00;;;;;;;17.20;4.35;;;;;;;9.74;96.93;101265.94;5067066;28;20036;-52
2023/02/24 02:33:00;;;;;;;21.77;5.50;;;;;;;9.62;95.90;101275.41;5063031;28;20034;-55
2023/02/24 02:35:37;;;;;;;16.00;4.00;;;;;;;9.66;96.36;101273.19;5081365;28;20083;-49
2023/02/24 02:38:13;;;;;;;;;;;;;;;9.23;98.40;101261.16;5099932;28;20066;-51
2023/02/24 02:41:05;;;;;;;29.45;4.97;;;;;;;9.71;96.68;101260.16;5100479;28;19912;-52
2023/02/24 02:43:45;;;;;;;22.98;5.32;;;;;;;9.49;96.58;101254.66;5096290;28;20118;-49
2023/02/24 02:46:45;;;;;;;27.90;5.72;;;;;;;9.43;96.83;101250.00;5079649;28;20032;-54
2023/02/24 02:49:31;;;;;;;19.83;4.47;;;;;;;9.41;97.23;101254.69;5082989;28;20103;-50
2023/02/24 02:52:04;;;;;;;26.35;7.28;;;;;;;9.11;99.44;101241.19;5100224;28;20044;-52
2023/02/24 02:54:52;;;;;;;20.80;5.20;;;;;;;9.32;98.07;101241.41;5098731;28;20029;-52
2023/02/24 02:57:26;;;;;;;;;;;;;;;9.33;97.91;101235.06;5101669;28;20028;-52
2023/02/24 02:59:57;;;;;;;22.60;6.28;;;;;;;8.64;100.00;101227.75;5096990;28;19948;-53
2023/02/24 03:02:28;;;;;;;17.58;5.00;;;;;;;9.14;99.28;101223.00;5079154;28;20045;-52
2023/02/24 03:04:59;;;;;;;20.85;3.95;;;;;;;8.91;99.30;101211.47;5104624;28;20035;-52
2023/02/24 03:07:30;;;;;;;18.30;4.30;;;;;;;9.09;99.85;101217.34;5083923;28;20053;-52
2023/02/24 03:10:09;;;;;;;20.10;4.78;;;;;;;8.92;100.00;101221.13;5075091;28;20035;-50
2023/02/24 03:12:39;;;;;;;16.58;4.03;;;;;;;8.94;99.86;101219.94;5096782;28;20054;-52
2023/02/24 03:15:09;;;;;;;18.77;4.60;;;;;;;8.88;100.00;101213.50;5081191;28;20028;-49
2023/02/24 03:17:41;;;;;;;19.13;4.10;;;;;;;9.05;99.21;101213.38;5081179;28;20037;-51
2023/02/24 03:20:14;;;;;;;25.38;4.30;;;;;;;8.94;99.23;101201.28;5079082;28;20040;-51
2023/02/24 03:23:15;;;;;;;16.35;3.10;;;;;;;8.75;99.72;101205.22;5101516;28;20028;-49
2023/02/24 03:25:47;;;;;;;24.95;4.95;;;;;;;8.95;98.64;101200.25;5070942;28;20063;-51
2023/02/24 03:28:23;;;;;;;16.98;3.70;;;;;;;8.76;100.00;101198.88;5080140;28;20040;-53
2023/02/24 03:30:59;;;;;;;28.95;4.85;;;;;;;8.75;100.00;101192.69;5080623;28;20419;-48
2023/02/24 03:33:34;;;;;;;24.90;3.78;;;;;;;8.81;99.40;101196.50;5098320;28;20024;-52
2023/02/24 03:36:00;;;;;;;22.65;4.32;;;;;;;8.74;99.43;101183.03;5096272;28;20156;-52
2023/02/24 03:38:31;;;;;;;16.23;4.45;;;;;;;9.25;97.13;101189.75;5080598;28;20025;-48
2023/02/24 03:40:58;;;;;;;27.30;5.43;;;;;;;9.03;97.18;101184.22;5080431;28;20025;-50
2023/02/24 03:43:32;;;;;;;17.85;4.43;;;;;;;9.04;98.03;101171.69;5078456;28;20032;-49
2023/02/24 03:46:02;;;;;;;17.95;5.00;;;;;;;9.15;97.39;101181.13;5081684;28;20040;-51
2023/02/24 03:48:28;;;;;;;18.65;4.15;;;;;;;9.33;96.67;101173.66;5078782;28;20016;-53
2023/02/24 03:50:58;;;;;;;26.73;4.45;;;;;;;9.22;96.60;101174.06;5115982;28;20062;-53
2023/02/24 03:53:45;;;;;;;19.10;3.47;;;;;;;8.98;97.87;101170.56;5079007;28;20029;-54
2023/02/24 03:56:42;;;;;;;22.83;4.60;;;;;;;8.82;99.01;101166.16;5097180;28;20020;-51
2023/02/24 03:59:14;;;;;;;16.40;3.83;;;;;;;8.88;99.09;101161.97;5076545;28;20100;-53
2023/02/24 04:01:47;;;;;;;14.52;4.00;;;;;;;8.91;99.54;101161.63;5076444;28;20475;-47
2023/02/24 04:04:29;;;;;;;21.13;5.18;;;;;;;8.79;98.81;101165.69;5081695;28;20040;-48
2023/02/24 04:07:31;;;;;;;21.73;4.25;;;;;;;9.19;98.52;101169.09;5083514;28;20065;-53
2023/02/24 04:10:14;;;;;;;22.67;3.78;;;;;;;9.21;97.30;101159.06;5093239;28;20174;-54
2023/02/24 04:12:54;;;;;;;18.42;3.75;;;;;;;9.27;97.60;101163.72;5113148;28;20020;-48
2023/02/24 04:15:29;;;;;;;22.73;4.18;;;;;;;9.50;97.49;101156.69;5083845;28;20028;-50
2023/02/24 04:18:00;;;;;;;14.88;3.17;;;;;;;9.59;95.71;101160.94;5078664;28;20032;-50
2023/02/24 04:20:34;;;;;;;17.88;3.58;;;;;;;9.32;96.13;101161.31;5077421;28;20092;-47
2023/02/24 04:23:09;;;;;;;28.48;5.05;;;;;;;9.48;96.54;101159.53;5108367;28;20034;-53
2023/02/24 04:25:37;;;;;;;17.48;4.00;;;;;;;9.97;94.38;101157.41;5110088;28;20181;-52
2023/02/24 04:28:06;;;;;;;14.65;3.53;;;;;;;9.56;95.10;101158.63;5098650;28;20518;-54
2023/02/24 04:30:39;;;;;;;19.48;3.42;;;;;;;9.29;96.25;101150.16;5077209;28;20040;-50
2023/02/24 04:33:06;;;;;;;25.08;3.33;;;;;;;9.28;96.92;101138.69;5073682;28;20096;-52
2023/02/24 04:35:33;;;;;;;19.73;3.65;;;;;;;9.17;96.41;101139.09;5079534;28;20064;-47
2023/02/24 04:37:59;;;;;;;20.35;5.03;;;;;;;9.51;97.22;101132.47;5116528;28;20041;-52
2023/02/24 04:40:26;;;;;;;20.60;3.87;;;;;;;9.54;96.29;101134.78;5078195;28;20026;-52
2023/02/24 04:42:53;;;;;;;16.70;3.60;;;;;;;9.59;97.15;101126.25;5093545;28;20281;-51
2023/02/24 04:45:24;;;;;;;10.90;2.88;;;;;;;10.03;95.14;101122.78;5099167;28;20029;-50
2023/02/24 04:47:54;;;;;;;14.20;3.28;;;;;;;10.05;93.89;101122.56;5099062;28;20047;-47
2023/02/24 04:50:24;;;;;;;11.68;3.20;;;;;;;10.04;93.98;101110.22;5097151;28;20065;-49
2023/02/24 04:52:53;;;;;;;14.50;4.30;;;;;;;9.82;94.99;101103.97;5099311;28;20071;-52
2023/02/24 04:55:21;;;;;;;12.65;2.83;;;;;;;9.49;97.13;101102.47;5094954;28;20040;-53
2023/02/24 04:57:53;;;;;;;35.75;4.93;;;;;;;9.51;96.48;101094.25;5095239;28;20183;-54
2023/02/24 05:00:20;;;;;;;18.02;4.15;;;;;;;9.82;94.44;101088.75;5098736;28;20091;-48
2023/02/24 05:02:50;;;;;;;18.38;3.97;;;;;;;10.19;92.85;101081.66;5102211;28;20178;-52
2023/02/24 05:05:24;;;;;;;17.38;3.45;;;;;;;9.41;94.41;101089.19;5094576;28;20039;-49
2023/02/24 05:07:53;;;;;;;18.85;5.00;;;;;;;9.79;94.63;101086.47;5101284;28;20104;-51
2023/02/24 05:10:19;;;;;;;14.68;4.68;;;;;;;9.32;96.28;101083.94;5099170;28;20103;-55
2023/02/24 05:12:45;;;;;;;;;;;;;;;9.05;99.10;101085.31;5097764;28;20028;-53
2023/02/24 05:15:14;;;;;;;23.20;4.93;;;;;;;9.29;99.84;101086.97;5101505;28;19919;-50
2023/02/24 05:17:40;;;;;;;29.85;4.93;;;;;;;9.73;97.12;101074.66;5104581;28;20025;-48
2023/02/24 05:22:51;;;;;;;19.23;4.70;;;;;;;9.26;98.84;101071.31;5095898;28;20062;-48
2023/02/24 05:25:17;;;;;;;13.77;5.07;;;;;;;9.28;98.14;101063.94;5098957;28;20063;-50
2023/02/24 05:27:43;;;;;;;14.85;4.07;;;;;;;9.50;98.38;101055.22;5080681;28;20281;-48
2023/02/24 05:30:10;;;;;;;16.95;4.43;;;;;;;9.19;99.42;101051.69;5096888;28;20058;-49
2023/02/24 05:32:36;;;;;;;13.50;4.20;;;;;;;9.38;99.04;101047.69;5099185;28;20104;-51
2023/02/24 05:35:02;;;;;;;14.40;4.30;;;;;;;9.87;95.96;101042.81;5097730;28;20100;-54
2023/02/24 05:37:27;;;;;;;15.30;3.13;;;;;;;9.68;96.40;101033.50;5079446;28;20033;-52
2023/02/24 05:39:59;;;;;;;16.47;4.20;;;;;;;9.39;99.51;101032.47;5096869;28;20180;-51
2023/02/24 05:42:26;;;;;;;11.02;3.25;;;;;;;9.61;99.85;101034.22;5096309;28;20047;-55
2023/02/24 05:44:52;;;;;;;16.13;3.42;;;;;;;9.73;98.69;101023.09;5102514;28;20024;-50
2023/02/24 05:47:18;;;;;;;22.92;4.75;;;;;;;10.04;97.19;101014.88;5095506;28;20033;-54
2023/02/24 05:49:46;;;;;;;15.68;3.20;;;;;;;9.45;99.75;101011.22;5101060;28;20040;-50
2023/02/24 05:52:13;;;;;;;18.35;3.83;;;;;;;9.31;100.00;101001.34;5098927;28;20032;-54
2023/02/24 05:54:43;;;;;;;15.07;3.97;;;;;;;9.22;100.00;100994.47;5102025;28;20037;-52
2023/02/24 05:57:17;;;;;;;18.65;3.78;;;;;;;9.56;100.00;100995.75;5098524;28;20048;-51
2023/02/24 05:59:43;;;;;;;19.83;3.45;;;;;;;9.43;100.00;100989.22;5082402;28;20045;-55
2023/02/24 06:02:13;;;;;;;14.68;3.28;;;;;;;9.37;100.00;100981.97;5099952;28;20032;-50
2023/02/24 06:04:49;;;;;;;23.15;4.22;;;;;;;9.79;100.00;100978.78;5096677;28;20124;-51
2023/02/24 06:07:21;;;;;;;14.10;3.53;;;;;;;9.09;100.00;100974.56;5101132;28;20039;-48
2023/02/24 06:09:49;;;;;;;20.27;4.30;;;;;;;9.38;100.00;100977.44;5096719;28;20069;-50
2023/02/24 06:12:16;;;;;;;20.25;3.10;;;;;;;8.91;100.00;100968.75;5100380;28;20040;-49
2023/02/24 06:14:43;;;;;;;18.85;5.40;;;;;;;9.08;100.00;100969.41;5100329;28;20044;-51
2023/02/24 06:17:09;;;;;;;10.05;3.45;;;;;;;9.39;100.00;100961.25;5097013;28;20032;-48
2023/02/24 06:19:36;;;;;;;18.40;4.07;;;;;;;9.35;100.00;100964.47;5097445;28;20033;-50
2023/02/24 06:22:02;;;;;;;17.35;3.85;;;;;;;9.00;100.00;100954.31;5100368;28;20042;-50
2023/02/24 06:24:30;;;;;;;12.27;3.97;;;;;;;9.15;100.00;100962.34;5101264;28;20397;-53
2023/02/24 06:27:01;;;;;;;16.55;3.42;;;;;;;8.79;100.00;100961.19;5097021;28;20064;-48
2023/02/24 06:29:29;;;;;;;14.18;3.15;;;;;;;9.05;100.00;100954.59;5100051;28;20033;-47
2023/02/24 06:31:56;;;;;;;22.73;3.47;;;;;;;8.97;100.00;100949.34;5098844;28;20028;-46
2023/02/24 06:34:24;;;;;;;14.55;6.18;;;;;;;9.00;100.00;100955.16;5100091;28;20067;-50
2023/02/24 06:36:51;;;;;;;18.15;3.03;;;;;;;9.35;100.00;100935.09;5100005;28;20044;-51
2023/02/24 06:39:18;;;;;;;14.60;2.42;;;;;;;9.18;100.00;100932.59;5096014;28;20032;-48
2023/02/24 06:41:44;;;;;;;8.75;2.45;;;;;;;9.46;98.52;100938.13;5095178;28;20039;-52
2023/02/24 06:44:09;;;;;;;9.32;3.00;;;;;;;9.45;99.24;100931.13;5101480;28;20032;-51
2023/02/24 06:46:36;;;;;;;10.03;2.70;;;;;;;9.24;100.00;100926.56;5095831;28;20041;-49
2023/02/24 06:49:02;;;;;;;13.68;3.40;;;;;;;9.64;99.58;100920.06;5097051;28;20022;-49
2023/02/24 06:51:29;;;;;;;12.98;3.22;;;;;;;9.73;98.24;100918.94;5104900;28;20040;-49
2023/02/24 06:53:56;;;;;;;13.63;2.45;;;;;;;9.56;98.21;100927.16;5097044;28;20028;-53
2023/02/24 06:56:22;;;;;;;10.23;2.78;;;;;;;9.42;99.75;100925.34;5095474;28;20075;-50
2023/02/24 06:58:51;;;;;;;14.38;3.05;;;;;;;9.15;100.00;100931.16;5099521;28;20044;-51
2023/02/24 07:01:24;;;;;;;11.13;2.33;;;;;;;9.11;100.00;100926.38;5098138;28;20036;-52
2023/02/24 07:06:33;;;;;;;10.30;2.25;;;;;;;9.37;100.00;100917.06;5098697;28;20041;-52
2023/02/24 07:09:05;;;;;;;15.05;3.03;;;;;;;9.26;100.00;100916.53;5095153;28;20040;-49
2023/02/24 07:11:32;;;;;;;13.23;2.40;;;;;;;9.61;99.93;100914.06;5095742;28;20060;-52
2023/02/24 07:13:59;;;;;;;11.45;3.03;;;;;;;9.31;100.00;100913.28;5096296;28;20033;-51
2023/02/24 07:16:27;;;;;;;7.35;1.55;;;;;;;9.26;100.00;100903.19;5082815;28;20032;-49
2023/02/24 07:19:09;;;;;;;19.77;2.58;;;;;;;9.65;100.00;100900.34;5096076;28;20056;-50
2023/02/24 07:21:42;;;;;;;8.63;2.30;;;;;;;10.02;98.16;100909.19;5096488;28;20044;-50
2023/02/24 07:24:11;;;;;;;11.73;2.65;;;;;;;9.53;100.00;100894.66;5096809;28;20043;-50
2023/02/24 07:26:40;;;;;;;9.60;2.20;;;;;;;9.52;100.00;100893.00;5098900;28;20040;-51
2023/02/24 07:29:12;;;;;;;9.60;2.20;;;;;;;9.67;100.00;100888.47;5095991;28;20036;-53
2023/02/24 07:31:38;;;;;;;14.02;3.08;;;;;;;10.17;97.72;100880.56;5100757;28;20033;-51
2023/02/24 07:34:05;;;;;;;10.00;3.40;;;;;;;9.75;99.96;100875.00;5100167;28;20108;-50
2023/02/24 07:36:37;;;;;;;9.20;2.78;;;;;;;9.86;99.55;100883.53;5098431;28;20024;-49
2023/02/24 07:39:04;;;;;;;11.55;2.72;;;;;;;9.78;99.19;100884.47;5099421;28;20036;-49
2023/02/24 07:41:30;;;;;;;10.02;2.70;;;;;;;9.74;100.00;100880.53;5097789;28;20036;-52
2023/02/24 07:43:57;;;;;;;13.25;2.85;;;;;;;9.94;99.90;100878.06;5095046;28;20096;-52
2023/02/24 07:46:27;;;;;;;17.77;3.58;;;;;;;9.68;100.00;100881.28;5100515;28;20033;-50
2023/02/24 07:48:54;;;;;;;24.45;3.00;;;;;;;9.60;100.00;100867.03;5099731;28;20028;-48
2023/02/24 07:51:23;;;;;;;16.88;2.92;;;;;;;10.03;100.00;100870.75;5100456;28;20060;-51
2023/02/24 07:53:58;;;;;;;19.13;3.38;;;;;;;10.30;98.83;100866.50;5098130;28;20036;-50
2023/02/24 07:56:26;;;;;;;13.98;2.22;;;;;;;10.00;100.00;100865.81;5095101;28;20024;-51
2023/02/24 07:59:20;;;;;;;8.15;2.85;;;;;;;9.91;100.00;100862.41;5101139;28;20024;-53
2023/02/24 08:01:48;;;;;;;12.65;3.47;;;;;;;10.16;100.00;100849.50;5096171;28;20115;-49
2023/02/24 08:04:19;;;;;;;17.67;2.92;;;;;;;9.82;100.00;100853.69;5100103;28;20077;-48
2023/02/24 08:06:49;;;;;;;10.02;2.22;;;;;;;10.46;100.00;100857.38;5095330;28;20032;-49
2023/02/24 08:09:45;;;;;;;19.17;2.35;;;;;;;10.53;100.00;100844.06;5100075;28;20083;-52
2023/02/24 08:12:06;;;;;;;18.90;2.50;;;;;;;10.28;100.00;100836.47;5099703;28;20051;-49
2023/02/24 08:14:33;;;;;;;9.30;1.88;;;;;;;10.63;100.00;100830.34;5095515;28;20035;-50
2023/02/24 08:17:00;;;;;;;12.02;1.75;;;;;;;10.46;100.00;100841.34;5097352;28;20553;-46
2023/02/24 08:19:32;;;;;;;20.25;3.33;;;;;;;10.23;100.00;100838.03;5100037;28;20028;-50
2023/02/24 08:22:23;;;;;;;12.15;1.92;;;;;;;10.58;100.00;100843.47;5093189;28;20051;-50
2023/02/24 08:25:04;;;;;;;13.48;2.10;;;;;;;10.68;100.00;100833.25;5096675;28;20040;-48
2023/02/24 08:27:32;;;;;;;15.30;2.20;;;;;;;10.32;100.00;100828.84;5095771;28;20047;-47
2023/02/24 08:30:02;;;;;;;15.05;2.40;;;;;;;10.69;100.00;100829.56;5097452;28;20044;-48
2023/02/24 08:32:42;;;;;;;10.77;2.30;;;;;;;10.89;100.00;100823.50;5102611;28;20036;-50
2023/02/24 08:35:34;;;;;;;18.95;2.33;;;;;;;11.31;100.00;100821.63;5094907;28;20067;-53
2023/02/24 08:38:06;;;;;;;7.60;2.17;;;;;;;11.23;100.00;100819.13;5094966;28;20096;-51
2023/02/24 08:43:14;;;;;;;10.32;2.20;;;;;;;10.78;100.00;100816.03;5099596;28;20064;-53
2023/02/24 08:45:58;;;;;;;11.32;2.40;;;;;;;10.98;100.00;100814.28;5094786;28;20082;-48
2023/02/24 08:48:35;;;;;;;16.83;2.65;;;;;;;11.55;100.00;100783.78;5096012;28;20059;-50
2023/02/24 08:51:22;;;;;;;9.82;2.30;;;;;;;10.60;100.00;100775.41;5100132;28;20044;-53
2023/02/24 08:53:52;;;;;;;8.73;2.25;;;;;;;10.73;100.00;100782.66;5098475;28;20071;-52
2023/02/24 08:56:24;;;;;;;17.17;2.92;;;;;;;10.32;100.00;100780.75;5093567;28;20029;-51
2023/02/24 08:59:06;;;;;;;26.23;3.72;;;;;;;10.92;100.00;100774.94;5095866;28;20040;-52
2023/02/24 09:01:51;;;;;;;9.98;2.30;;;;;;;11.05;100.00;100766.13;5094430;28;20032;-49
2023/02/24 09:04:18;;;;;;;18.00;2.63;;;;;;;11.82;100.00;100763.22;5099459;28;20066;-48
2023/02/24 09:06:45;;;;;;;13.82;2.45;;;;;;;11.22;100.00;100766.59;5092412;28;20045;-51
2023/02/24 09:09:17;;;;;;;13.57;2.65;;;;;;;11.17;100.00;100767.19;5094477;28;20048;-53
2023/02/24 09:12:01;;;;;;;9.90;1.95;;;;;;;10.99;100.00;100765.09;5097690;28;20041;-49
2023/02/24 09:14:29;;;;;;;12.98;2.83;;;;;;;11.57;100.00;100762.97;5097157;28;20047;-52
2023/02/24 09:17:09;;;;;;;11.15;2.45;;;;;;;12.02;100.00;100757.06;5096066;28;20037;-51
2023/02/24 09:22:28;;;;;;;14.85;2.80;;;;;;;11.65;100.00;100762.78;5094291;28;20040;-50
2023/02/24 09:27:41;;;;;;;14.02;3.03;;;;;;;11.71;100.00;100755.78;5094126;28;20040;-53
2023/02/24 09:30:34;;;;;;;24.15;3.13;;;;;;;11.54;100.00;100750.00;5095291;28;20032;-52
2023/02/24 09:32:59;;;;;;;16.83;3.53;;;;;;;10.96;100.00;100744.09;5092740;28;20039;-48
2023/02/24 09:35:29;;;;;;;18.63;4.10;;;;;;;11.24;100.00;100748.47;5094996;28;20045;-51
2023/02/24 09:37:59;;;;;;;12.70;3.13;;;;;;;11.35;100.00;100740.91;5097590;28;20032;-49
2023/02/24 09:40:47;;;;;;;20.83;3.50;;;;;;;11.71;100.00;100731.66;5094117;28;20037;-50
2023/02/24 09:43:23;;;;;;;21.50;3.63;;;;;;;11.18;100.00;100730.56;5094843;28;20067;-51
2023/02/24 09:46:14;;;;;;;17.90;3.42;;;;;;;11.93;100.00;100713.53;5099204;28;20089;-53
2023/02/24 09:49:04;;;;;;;15.00;3.35;;;;;;;11.90;100.00;100709.41;5097270;28;20036;-49
2023/02/24 09:51:41;;;;;;;15.82;3.45;;;;;;;11.58;100.00;100713.72;5097543;28;20032;-50
2023/02/24 09:54:23;;;;;;;20.15;3.00;;;;;;;11.99;100.00;100712.69;5101271;28;20028;-53
2023/02/24 09:57:06;;;;;;;17.58;3.20;;;;;;;11.92;100.00;100703.84;5102524;28;20092;-48
2023/02/24 09:59:59;;;;;;;12.43;2.65;;;;;;;11.58;100.00;100703.03;5099875;28;20028;-49
2023/02/24 10:02:58;;;;;;;16.35;2.78;;;;;;;12.02;100.00;100687.38;5097393;28;20028;-52
2023/02/24 10:05:37;;;;;;;16.63;3.45;;;;;;;11.93;100.00;100694.78;5098836;28;20047;-48
2023/02/24 10:08:16;;;;;;;18.42;3.30;;;;;;;12.52;100.00;100691.38;5098590;28;20037;-52
2023/02/24 10:10:59;;;;;;;15.23;3.85;;;;;;;12.03;100.00;100673.75;5097000;28;20037;-48
2023/02/24 10:13:31;;;;;;;13.77;4.22;;;;;;;12.38;100.00;100674.50;5099279;28;20036;-49
2023/02/24 10:16:04;;;;;;;16.55;3.80;;;;;;;12.61;100.00;100668.63;5100845;28;20054;-49
2023/02/24 10:19:10;;;;;;;16.83;3.42;;;;;;;12.16;100.00;100664.84;5100634;28;20500;-51
2023/02/24 10:21:48;;;;;;;14.05;2.65;;;;;;;12.18;100.00;100654.75;5099947;28;20036;-52
2023/02/24 10:24:28;;;;;;;12.82;2.88;;;;;;;12.12;100.00;100668.19;5096253;28;20043;-54
2023/02/24 10:27:01;;;;;;;23.63;6.00;;;;;;;12.22;100.00;100665.03;5093848;28;20037;-51
2023/02/24 10:30:09;;;;;;;14.35;3.22;;;;;;;12.31;100.00;100663.78;5098376;28;20115;-47
2023/02/24 10:32:46;;;;;;;10.15;3.50;;;;;;;12.00;100.00;100665.28;5100685;28;20062;-48
2023/02/24 10:35:18;;;;;;;13.23;4.82;;;;;;;11.85;100.00;100666.34;5097655;28;20068;-49
2023/02/24 10:37:44;;;;;;;13.15;3.92;;;;;;;11.77;100.00;100655.84;5097179;28;20035;-53
2023/02/24 10:40:16;;;;;;;14.52;3.70;;;;;;;12.01;100.00;100658.94;5097016;28;20036;-53
2023/02/24 10:42:46;;;;;;;22.75;4.20;;;;;;;12.72;100.00;100657.25;5101357;28;20036;-54
2023/02/24 10:45:22;;;;;;;19.45;4.82;;;;;;;12.74;100.00;100660.53;5095283;28;20039;-50
2023/02/24 10:47:56;;;;;;;14.23;3.88;;;;;;;12.52;100.00;100651.13;5096729;28;20036;-49
2023/02/24 10:50:28;;;;;;;10.90;4.00;;;;;;;12.63;100.00;100650.44;5099163;28;20100;-52
2023/02/24 10:53:10;;;;;;;16.85;5.28;;;;;;;12.91;100.00;100649.25;5099701;28;20036;-53
2023/02/24 10:58:21;;;;;;;22.67;5.18;;;;;;;12.02;100.00;100637.25;5103570;28;20036;-54
2023/02/24 11:00:59;;;;;;;33.50;6.85;;;;;;;12.46;100.00;100644.75;5095789;28;20044;-48
2023/02/24 11:03:41;;;;;;;21.45;5.25;;;;;;;12.20;100.00;100641.13;5101563;28;20041;-52
2023/02/24 11:06:41;;;;;;;28.63;7.30;;;;;;;11.62;100.00;100627.41;5100765;28;20044;-51
2023/02/24 11:09:30;;;;;;;26.65;6.68;;;;;;;12.02;100.00;100620.38;5077814;28;20111;-49
2023/02/24 11:17:59;;;;;;;18.05;7.13;;;;;;;12.40;100.00;100606.19;5096127;28;20039;-50
2023/02/24 11:20:42;;;;;;;25.25;7.28;;;;;;;12.82;100.00;100613.84;5096044;28;20033;-52
2023/02/24 11:23:14;;;;;;;20.15;7.05;;;;;;;12.55;100.00;100594.38;5098295;28;20058;-52
2023/02/24 11:25:45;;;;;;;27.65;7.40;;;;;;;12.25;100.00;100602.97;5094512;28;20033;-51
2023/02/24 11:28:49;;;;;;;18.75;6.53;;;;;;;12.19;100.00;100591.25;5097290;28;20114;-53
2023/02/24 11:31:41;;;;;;;29.90;8.15;;;;;;;12.53;100.00;100585.72;5100537;28;20073;-51
2023/02/24 11:34:36;;;;;;;23.73;7.03;;;;;;;12.75;100.00;100586.19;5101109;28;20039;-53
2023/02/24 11:37:36;;;;;;;28.65;7.53;;;;;;;12.73;100.00;100580.22;5098215;28;20044;-54
2023/02/24 11:40:07;;;;;;;31.55;8.50;;;;;;;11.79;100.00;100584.13;5095726;28;20043;-55
2023/02/24 11:42:44;;;;;;;22.65;7.50;;;;;;;12.14;100.00;100572.28;5101217;28;20033;-53
2023/02/24 11:45:43;;;;;;;27.67;7.22;;;;;;;12.16;100.00;100568.34;5100087;28;20044;-54
2023/02/24 11:48:15;;;;;;;20.60;7.45;;;;;;;12.34;100.00;100561.47;5102749;28;20036;-54
2023/02/24 11:50:54;;;;;;;30.13;8.80;;;;;;;12.65;100.00;100553.66;5096515;28;20032;-53
2023/02/24 11:53:50;;;;;;;24.92;7.93;;;;;;;12.73;100.00;100551.56;5094098;28;20044;-52
2023/02/24 11:56:32;;;;;;;28.10;7.65;;;;;;;13.09;100.00;100545.69;5092757;28;20039;-51
2023/02/24 11:59:27;;;;;;;18.48;6.97;;;;;;;12.80;100.00;100545.31;5097852;28;20081;-54
2023/02/24 12:02:37;;;;;;;23.83;7.70;;;;;;;12.65;100.00;100535.69;5094487;28;20066;-53
2023/02/24 12:05:18;;;;;;;13.85;7.43;;;;;;;12.50;100.00;100533.31;5092626;28;20039;-54
2023/02/24 12:07:47;;;;;;;19.17;7.25;;;;;;;12.36;100.00;100516.50;5097186;28;20033;-57
2023/02/24 12:10:26;;;;;;;23.48;8.73;;;;;;;12.88;100.00;100528.94;5091840;28;20038;-53
2023/02/24 12:13:18;;;;;;;20.65;7.28;;;;;;;12.97;100.00;100516.91;5095075;28;20035;-55
2023/02/24 12:15:53;;;;;;;26.40;8.07;;;;;;;13.07;100.00;100520.94;5091320;28;20033;-51